Time;durP1;ratioP1;P1;durP2;ratioP2;P2;SDS_P1;SDS_P2;PMS_P1;PMS_P2;Temp;Humidity;BMP_temperature;BMP_pressure;BME280_temperature;BME280_humidity;BME280_pressure;Samples;Min_cycle;Max_cycle;Signal;HPM_P1;HPM_P2
2023/07/11 00:00:14;;;;;;;7.22;2.60;;;19.40;97.80;;;;;;5098491;28;20067;-57
2023/07/11 00:02:44;;;;;;;7.97;2.53;;;19.40;97.80;;;;;;5083340;28;20046;-57
2023/07/11 00:05:12;;;;;;;8.65;2.47;;;19.40;97.80;;;;;;5098754;28;20048;-57
2023/07/11 00:07:37;;;;;;;6.43;2.30;;;19.40;97.80;;;;;;5099976;28;20093;-57
2023/07/11 00:10:03;;;;;;;5.75;2.80;;;19.30;97.90;;;;;;5099672;28;20524;-56
2023/07/11 00:12:29;;;;;;;6.45;2.75;;;19.40;97.90;;;;;;5131059;27;20047;-57
2023/07/11 00:14:56;;;;;;;6.00;2.25;;;19.40;98.00;;;;;;5081782;28;20066;-56
2023/07/11 00:17:23;;;;;;;8.80;2.85;;;19.40;98.20;;;;;;5096776;28;20048;-57
2023/07/11 00:19:51;;;;;;;5.43;2.40;;;19.30;98.30;;;;;;5100527;28;20056;-56
2023/07/11 00:22:18;;;;;;;7.20;2.63;;;19.30;98.40;;;;;;5096922;28;20043;-55
2023/07/11 00:24:44;;;;;;;6.68;2.42;;;19.30;98.50;;;;;;5081616;28;20036;-57
2023/07/11 00:27:11;;;;;;;8.65;2.70;;;19.30;98.60;;;;;;5098138;28;20100;-56
2023/07/11 00:29:37;;;;;;;7.10;2.58;;;19.20;98.70;;;;;;5098172;28;20113;-57
2023/07/11 00:32:04;;;;;;;6.47;2.70;;;19.20;98.90;;;;;;5099826;28;20047;-56
2023/07/11 00:34:30;;;;;;;9.88;3.08;;;19.20;99.00;;;;;;5097912;28;20519;-57
2023/07/11 00:36:55;;;;;;;8.13;3.20;;;19.20;99.00;;;;;;5100196;28;20048;-56
2023/07/11 00:39:21;;;;;;;10.10;3.83;;;19.10;99.20;;;;;;5098267;28;20441;-56
2023/07/11 00:41:47;;;;;;;8.07;3.40;;;19.00;99.20;;;;;;5097966;28;20095;-57
2023/07/11 00:44:14;;;;;;;12.23;3.65;;;18.90;99.60;;;;;;5099495;28;20036;-56
2023/07/11 00:46:41;;;;;;;9.05;3.33;;;18.80;99.70;;;;;;5098196;28;20091;-57
2023/07/11 00:49:09;;;;;;;6.78;3.60;;;18.80;99.90;;;;;;5099667;28;20040;-57
2023/07/11 00:51:46;;;;;;;11.25;3.40;;;18.70;99.90;;;;;;5097986;28;20036;-56
2023/07/11 00:54:15;;;;;;;9.60;3.65;;;18.70;99.90;;;;;;5098880;28;20055;-57
2023/07/11 00:56:45;;;;;;;8.65;3.10;;;18.60;99.90;;;;;;5098391;28;20040;-56
2023/07/11 00:59:11;;;;;;;7.07;3.40;;;18.60;99.90;;;;;;5098802;28;20044;-57
2023/07/11 01:01:37;;;;;;;8.43;3.58;;;18.60;99.90;;;;;;5100847;28;20040;-57
2023/07/11 01:04:05;;;;;;;9.25;3.10;;;18.60;99.90;;;;;;5100569;28;20055;-57
2023/07/11 01:06:32;;;;;;;4.90;3.13;;;18.60;99.90;;;;;;5102323;28;20062;-56
2023/07/11 01:09:00;;;;;;;7.55;3.60;;;18.50;99.90;;;;;;5101546;28;20044;-57
2023/07/11 01:11:29;;;;;;;7.07;3.60;;;18.50;99.90;;;;;;5103443;28;20435;-56
2023/07/11 01:13:55;;;;;;;6.50;3.30;;;18.40;99.90;;;;;;5102392;28;20092;-56
2023/07/11 01:16:21;;;;;;;9.25;3.60;;;18.40;99.90;;;;;;5101203;28;20062;-56
2023/07/11 01:18:48;;;;;;;8.20;3.13;;;18.40;99.90;;;;;;5103356;28;20428;-56
2023/07/11 01:21:18;;;;;;;7.05;3.22;;;18.30;99.90;;;;;;5101345;28;20051;-57
2023/07/11 01:23:45;;;;;;;7.60;3.13;;;18.30;99.90;;;;;;5103536;28;20093;-56
2023/07/11 01:26:14;;;;;;;6.97;3.30;;;18.30;99.90;;;;;;5099922;28;20106;-56
2023/07/11 01:28:40;;;;;;;10.93;3.70;;;18.30;99.90;;;;;;5103567;28;20091;-57
2023/07/11 01:31:06;;;;;;;5.68;3.10;;;18.30;99.90;;;;;;5102220;28;20040;-56
2023/07/11 01:33:33;;;;;;;6.90;3.47;;;18.20;99.90;;;;;;5100628;28;20044;-57
2023/07/11 01:35:59;;;;;;;7.40;3.03;;;18.20;99.90;;;;;;5103198;28;20060;-57
2023/07/11 01:38:26;;;;;;;5.85;3.22;;;18.10;99.90;;;;;;5099758;28;20085;-57
2023/07/11 01:40:52;;;;;;;9.05;3.10;;;18.10;99.90;;;;;;5084830;28;20044;-56
2023/07/11 01:43:19;;;;;;;7.90;3.30;;;18.10;99.90;;;;;;5100889;28;20078;-56
2023/07/11 01:45:45;;;;;;;6.10;3.03;;;18.10;99.90;;;;;;5103357;28;20122;-57
2023/07/11 01:48:11;;;;;;;6.25;2.92;;;18.00;99.90;;;;;;5101942;28;20044;-57
2023/07/11 01:50:37;;;;;;;5.82;3.15;;;18.00;99.90;;;;;;5101874;28;20048;-57
2023/07/11 01:53:03;;;;;;;6.20;3.20;;;18.00;99.90;;;;;;5102816;28;20044;-57
2023/07/11 01:55:29;;;;;;;6.90;3.53;;;18.00;99.90;;;;;;5100957;28;20803;-57
2023/07/11 01:57:54;;;;;;;8.23;3.95;;;18.00;99.90;;;;;;5101649;28;20044;-57
2023/07/11 02:00:20;;;;;;;6.57;3.10;;;18.00;99.90;;;;;;5100646;28;20039;-57
2023/07/11 02:02:46;;;;;;;10.90;3.47;;;18.00;99.90;;;;;;5103095;28;20040;-57
2023/07/11 02:05:14;;;;;;;9.77;3.45;;;17.90;99.90;;;;;;5101238;28;20032;-56
2023/07/11 02:07:41;;;;;;;6.00;3.50;;;17.90;99.90;;;;;;5101917;28;20028;-56
2023/07/11 02:10:08;;;;;;;5.70;3.55;;;17.90;99.90;;;;;;5100549;28;20100;-56
2023/07/11 02:12:33;;;;;;;7.97;3.80;;;17.90;99.90;;;;;;5099525;28;20565;-57
2023/07/11 02:14:59;;;;;;;6.65;3.92;;;17.90;99.90;;;;;;5102127;28;20059;-56
2023/07/11 02:17:25;;;;;;;7.18;3.72;;;17.80;99.90;;;;;;5099014;28;20267;-56
2023/07/11 02:19:51;;;;;;;6.43;3.80;;;17.80;99.90;;;;;;5084790;28;20487;-57
2023/07/11 02:22:17;;;;;;;10.15;4.10;;;17.80;99.90;;;;;;5100587;28;20048;-56
2023/07/11 02:24:42;;;;;;;7.00;3.83;;;17.80;99.90;;;;;;5100413;28;20055;-56
2023/07/11 02:27:08;;;;;;;7.93;4.28;;;17.80;99.90;;;;;;5101830;28;20066;-56
2023/07/11 02:29:34;;;;;;;5.22;3.65;;;17.70;99.90;;;;;;5100413;28;20047;-57
2023/07/11 02:32:00;;;;;;;7.63;4.03;;;17.60;99.90;;;;;;5101758;28;20040;-57
2023/07/11 02:34:26;;;;;;;7.68;4.32;;;17.60;99.90;;;;;;5100043;28;20115;-57
2023/07/11 02:36:52;;;;;;;9.60;4.22;;;17.60;99.90;;;;;;5102382;28;20067;-56
2023/07/11 02:39:18;;;;;;;10.05;5.10;;;17.60;99.90;;;;;;5100087;28;20557;-55
2023/07/11 02:41:43;;;;;;;7.57;4.47;;;17.60;99.90;;;;;;5100090;28;20044;-56
2023/07/11 02:44:09;;;;;;;10.25;4.93;;;17.60;99.90;;;;;;5101320;28;20097;-55
2023/07/11 02:46:36;;;;;;;9.45;4.75;;;17.50;99.90;;;;;;5100318;28;20032;-56
2023/07/11 02:49:02;;;;;;;9.18;4.63;;;17.50;99.90;;;;;;5101645;28;20036;-56
2023/07/11 02:51:28;;;;;;;9.98;5.30;;;17.50;99.90;;;;;;5099589;28;20036;-57
2023/07/11 02:53:54;;;;;;;7.22;4.97;;;17.40;99.90;;;;;;5101848;28;20543;-57
2023/07/11 02:56:20;;;;;;;9.38;4.70;;;17.40;99.90;;;;;;5098229;28;20498;-56
2023/07/11 02:58:47;;;;;;;7.95;4.40;;;17.40;99.90;;;;;;5100323;28;20566;-57
2023/07/11 03:01:13;;;;;;;7.03;4.72;;;17.30;99.90;;;;;;5100736;28;20070;-56
2023/07/11 03:03:39;;;;;;;6.25;4.93;;;17.30;99.90;;;;;;5100141;28;20099;-57
2023/07/11 03:06:05;;;;;;;9.88;5.72;;;17.30;99.90;;;;;;5101109;28;20076;-57
2023/07/11 03:08:31;;;;;;;6.68;4.88;;;17.30;99.90;;;;;;5099486;28;20529;-57
2023/07/11 03:11:01;;;;;;;11.93;5.20;;;17.30;99.90;;;;;;5100913;28;20069;-56
2023/07/11 03:13:27;;;;;;;9.30;5.00;;;17.30;99.90;;;;;;5099272;28;20063;-56
2023/07/11 03:15:53;;;;;;;9.05;5.30;;;17.20;99.90;;;;;;5101128;28;20067;-57
2023/07/11 03:18:19;;;;;;;10.32;5.30;;;17.20;99.90;;;;;;5100305;28;20062;-56
2023/07/11 03:20:45;;;;;;;9.13;5.55;;;17.20;99.90;;;;;;5099695;28;20044;-57
2023/07/11 03:23:14;;;;;;;10.32;5.53;;;17.10;99.90;;;;;;5100843;28;20052;-57
2023/07/11 03:25:40;;;;;;;9.60;5.53;;;17.10;99.90;;;;;;5099057;28;20109;-57
2023/07/11 03:28:07;;;;;;;9.50;5.57;;;17.00;99.90;;;;;;5101168;28;20044;-56
2023/07/11 03:30:34;;;;;;;11.10;6.07;;;17.00;99.90;;;;;;5099167;28;20040;-56
2023/07/11 03:33:00;;;;;;;10.18;5.65;;;16.90;99.90;;;;;;5101009;28;20044;-56
2023/07/11 03:35:26;;;;;;;7.72;5.50;;;16.90;99.90;;;;;;5099765;28;20043;-56
2023/07/11 03:37:52;;;;;;;9.82;5.68;;;16.90;99.90;;;;;;5099504;28;20044;-57
2023/07/11 03:40:18;;;;;;;12.27;5.93;;;16.80;99.90;;;;;;5100261;28;20046;-57
2023/07/11 03:42:43;;;;;;;11.82;6.47;;;16.80;99.90;;;;;;5097632;28;20044;-57
2023/07/11 03:45:09;;;;;;;10.70;6.10;;;16.80;99.90;;;;;;5100957;28;20044;-57
2023/07/11 03:47:35;;;;;;;11.27;6.03;;;16.70;99.90;;;;;;5097249;28;20044;-57
2023/07/11 03:50:01;;;;;;;10.30;5.88;;;16.80;99.90;;;;;;5100614;28;20403;-57
2023/07/11 03:52:27;;;;;;;8.30;6.00;;;16.70;99.90;;;;;;5099458;28;20045;-56
2023/07/11 03:54:52;;;;;;;13.18;5.95;;;16.70;99.90;;;;;;5081269;28;20064;-57
2023/07/11 03:57:18;;;;;;;8.18;5.63;;;16.80;99.90;;;;;;5100497;28;20498;-56
2023/07/11 03:59:44;;;;;;;10.25;6.53;;;16.80;99.90;;;;;;5098618;28;20048;-56
2023/07/11 04:02:10;;;;;;;10.32;6.18;;;16.80;99.90;;;;;;5100362;28;20040;-56
2023/07/11 04:04:35;;;;;;;10.88;5.90;;;16.90;99.90;;;;;;5096615;28;20038;-56
2023/07/11 04:07:02;;;;;;;10.93;5.95;;;16.90;99.90;;;;;;5100683;28;20093;-56
2023/07/11 04:09:28;;;;;;;9.70;5.97;;;16.90;99.90;;;;;;5099162;28;20071;-57
2023/07/11 04:11:54;;;;;;;10.77;6.18;;;16.90;99.90;;;;;;5098909;28;20071;-57
2023/07/11 04:14:19;;;;;;;8.43;5.75;;;17.00;99.90;;;;;;5100149;28;20059;-56
2023/07/11 04:16:45;;;;;;;10.50;6.00;;;17.00;99.90;;;;;;5098170;28;20408;-57
2023/07/11 04:19:11;;;;;;;11.73;5.70;;;17.00;99.90;;;;;;5099926;28;20036;-57
2023/07/11 04:21:36;;;;;;;12.40;5.95;;;17.00;99.90;;;;;;5098192;28;20565;-57
2023/07/11 04:24:02;;;;;;;10.73;5.53;;;17.10;99.90;;;;;;5100415;28;20086;-56
2023/07/11 04:26:28;;;;;;;11.73;6.07;;;17.10;99.90;;;;;;5098621;28;20040;-56
2023/07/11 04:28:54;;;;;;;9.57;6.13;;;17.10;99.90;;;;;;5099697;28;20048;-57
2023/07/11 04:31:19;;;;;;;11.73;6.15;;;17.10;99.90;;;;;;5099965;28;20051;-56
2023/07/11 04:33:45;;;;;;;13.00;6.07;;;17.20;99.90;;;;;;5097763;28;20047;-57
2023/07/11 04:36:13;;;;;;;11.75;6.10;;;17.20;99.90;;;;;;5099439;28;20103;-57
2023/07/11 04:38:39;;;;;;;16.95;6.40;;;17.30;99.90;;;;;;5097780;28;20036;-56
2023/07/11 04:41:06;;;;;;;14.35;6.53;;;17.30;99.90;;;;;;5099945;28;20047;-56
2023/07/11 04:43:33;;;;;;;11.48;6.10;;;17.40;99.90;;;;;;5096875;28;20039;-56
2023/07/11 04:46:00;;;;;;;10.65;6.13;;;17.30;99.90;;;;;;5099432;28;20072;-57
2023/07/11 04:48:26;;;;;;;12.55;6.03;;;17.30;99.90;;;;;;5099549;28;20040;-56
2023/07/11 04:51:11;;;;;;;15.23;6.70;;;17.40;99.90;;;;;;5097898;28;20048;-57
2023/07/11 04:53:38;;;;;;;14.52;6.60;;;17.40;99.90;;;;;;5098487;28;20059;-56
2023/07/11 04:56:06;;;;;;;13.82;6.75;;;17.40;99.90;;;;;;5097610;28;20044;-56
2023/07/11 04:58:34;;;;;;;12.32;6.05;;;17.40;99.90;;;;;;5099890;28;20048;-56
2023/07/11 05:01:12;;;;;;;12.23;6.53;;;17.40;99.90;;;;;;5097494;28;20438;-55
2023/07/11 05:03:38;;;;;;;10.07;6.45;;;17.50;99.90;;;;;;5097883;28;20487;-57
2023/07/11 05:06:05;;;;;;;14.60;6.45;;;17.50;99.90;;;;;;5099435;28;20068;-56
2023/07/11 05:08:31;;;;;;;13.50;6.53;;;17.50;99.90;;;;;;5097527;28;20123;-57
2023/07/11 05:11:16;;;;;;;14.20;6.80;;;17.60;99.90;;;;;;5099654;28;20086;-56
2023/07/11 05:13:43;;;;;;;11.73;6.53;;;17.60;99.90;;;;;;5098297;28;20407;-57
2023/07/11 05:16:19;;;;;;;12.55;7.10;;;17.70;99.90;;;;;;5098785;28;20028;-56
2023/07/11 05:18:46;;;;;;;13.17;6.70;;;17.80;99.90;;;;;;5081220;28;20046;-57
2023/07/11 05:21:14;;;;;;;12.07;6.15;;;17.80;99.90;;;;;;5097535;28;20294;-57
2023/07/11 05:23:40;;;;;;;11.05;6.57;;;17.90;99.90;;;;;;5098451;28;20455;-57
2023/07/11 05:26:07;;;;;;;11.77;6.95;;;17.90;99.90;;;;;;5097327;28;20373;-57
2023/07/11 05:28:33;;;;;;;12.00;6.85;;;18.00;99.90;;;;;;5099707;28;20048;-58
2023/07/11 05:31:03;;;;;;;13.85;7.38;;;18.10;99.90;;;;;;5096660;28;20048;-56
2023/07/11 05:33:29;;;;;;;9.82;6.80;;;18.10;99.90;;;;;;5096969;28;20177;-57
2023/07/11 05:38:44;;;;;;;16.10;7.18;;;18.20;99.90;;;;;;5096192;28;20472;-57
2023/07/11 05:41:10;;;;;;;13.73;7.68;;;18.30;99.90;;;;;;5099504;28;20046;-57
2023/07/11 05:43:36;;;;;;;13.63;7.50;;;18.40;99.90;;;;;;5097766;28;20074;-56
2023/07/11 05:46:02;;;;;;;15.18;7.90;;;18.50;99.90;;;;;;5097358;28;20086;-57
2023/07/11 05:48:27;;;;;;;12.65;7.93;;;18.50;99.90;;;;;;5101578;28;20390;-56
2023/07/11 05:51:05;;;;;;;13.10;7.00;;;18.60;99.90;;;;;;5099691;28;20707;-57
2023/07/11 05:53:31;;;;;;;11.38;7.38;;;18.70;99.90;;;;;;5101684;28;20048;-56
2023/07/11 05:55:58;;;;;;;12.15;7.22;;;18.80;99.90;;;;;;5099168;28;20480;-57
2023/07/11 05:58:27;;;;;;;12.18;7.75;;;18.80;99.90;;;;;;5101886;28;20111;-57
2023/07/11 06:00:53;;;;;;;11.05;7.05;;;18.90;99.90;;;;;;5099926;28;20040;-57
2023/07/11 06:03:20;;;;;;;12.57;7.43;;;19.10;99.90;;;;;;5100229;28;20729;-57
2023/07/11 06:05:46;;;;;;;12.70;7.40;;;19.20;99.90;;;;;;5100804;28;20043;-57
2023/07/11 06:08:12;;;;;;;11.38;7.72;;;19.20;99.90;;;;;;5099278;28;20083;-57
2023/07/11 06:10:38;;;;;;;17.00;7.30;;;19.30;99.90;;;;;;5102052;28;20068;-57
2023/07/11 06:13:04;;;;;;;15.02;7.53;;;19.30;99.90;;;;;;5098379;28;20056;-57
2023/07/11 06:15:30;;;;;;;14.13;7.47;;;19.40;99.90;;;;;;5101220;28;20050;-57
2023/07/11 06:17:56;;;;;;;9.85;6.95;;;19.50;99.90;;;;;;5101017;28;20043;-56
2023/07/11 06:20:23;;;;;;;11.65;6.57;;;19.60;99.90;;;;;;5101788;28;20050;-58
2023/07/11 06:22:49;;;;;;;11.15;6.80;;;19.60;99.90;;;;;;5102138;28;20059;-57
2023/07/11 06:25:15;;;;;;;11.13;6.53;;;19.70;99.90;;;;;;5100262;28;20579;-57
2023/07/11 06:27:40;;;;;;;12.18;6.60;;;19.80;99.90;;;;;;5102142;28;20044;-57
2023/07/11 06:30:07;;;;;;;13.20;6.63;;;19.80;99.90;;;;;;5098623;28;20044;-57
2023/07/11 06:32:33;;;;;;;13.77;7.07;;;19.90;99.90;;;;;;5100753;28;20032;-57
2023/07/11 06:34:58;;;;;;;11.10;7.63;;;19.90;99.90;;;;;;5099250;28;20128;-57
2023/07/11 06:37:24;;;;;;;12.35;6.70;;;19.90;99.90;;;;;;5101600;28;20089;-58
2023/07/11 06:39:50;;;;;;;14.43;7.35;;;19.90;99.90;;;;;;5099914;28;20846;-57
2023/07/11 06:42:17;;;;;;;10.60;6.38;;;20.00;99.90;;;;;;5100171;28;20086;-57
2023/07/11 06:44:42;;;;;;;14.15;7.38;;;20.10;99.90;;;;;;5083651;28;20058;-56
2023/07/11 06:47:08;;;;;;;12.00;6.82;;;20.10;99.90;;;;;;5099746;28;20039;-57
2023/07/11 06:49:34;;;;;;;11.77;6.45;;;20.10;99.90;;;;;;5101866;28;20091;-57
2023/07/11 06:52:00;;;;;;;13.63;7.13;;;20.20;99.90;;;;;;5099913;28;20067;-56
2023/07/11 06:54:26;;;;;;;9.90;6.43;;;20.20;99.90;;;;;;5101352;28;20396;-57
2023/07/11 06:56:54;;;;;;;10.48;6.20;;;20.30;99.90;;;;;;5100980;28;20051;-57
2023/07/11 06:59:20;;;;;;;11.45;6.75;;;20.50;99.90;;;;;;5081306;28;20708;-57
2023/07/11 07:01:47;;;;;;;11.32;6.18;;;20.70;99.90;;;;;;5101437;28;20044;-57
2023/07/11 07:04:14;;;;;;;10.55;6.35;;;20.90;99.90;;;;;;5099406;28;20043;-57
2023/07/11 07:06:43;;;;;;;12.43;5.72;;;20.90;99.90;;;;;;5101626;28;20541;-57
2023/07/11 07:09:10;;;;;;;13.80;6.13;;;21.00;99.90;;;;;;5099603;28;20044;-56
2023/07/11 07:11:36;;;;;;;11.57;5.28;;;21.10;99.90;;;;;;5100470;28;20496;-57
2023/07/11 07:14:09;;;;;;;9.98;5.35;;;21.20;99.90;;;;;;5100792;28;20048;-57
2023/07/11 07:16:36;;;;;;;12.43;5.25;;;21.30;99.90;;;;;;5099264;28;20434;-57
2023/07/11 07:19:04;;;;;;;12.77;4.78;;;21.50;99.90;;;;;;5101305;28;20073;-57
2023/07/11 07:21:30;;;;;;;11.73;4.45;;;21.70;99.90;;;;;;5099013;28;20043;-57
2023/07/11 07:23:56;;;;;;;10.52;4.88;;;22.00;99.90;;;;;;5101371;28;20040;-57
2023/07/11 07:26:22;;;;;;;9.35;4.75;;;22.10;99.90;;;;;;5098150;28;20043;-57
2023/07/11 07:28:47;;;;;;;8.05;4.53;;;22.20;99.90;;;;;;5100548;28;20075;-57
2023/07/11 07:31:13;;;;;;;7.93;4.82;;;22.40;99.90;;;;;;5100400;28;20069;-56
2023/07/11 07:33:40;;;;;;;5.93;3.88;;;22.50;99.90;;;;;;5098892;28;20036;-58
2023/07/11 07:36:08;;;;;;;5.97;3.80;;;22.80;99.90;;;;;;5099317;28;20068;-57
2023/07/11 07:38:34;;;;;;;7.47;3.95;;;23.10;99.90;;;;;;5098700;28;20036;-57
2023/07/11 07:41:04;;;;;;;7.63;3.08;;;23.50;99.90;;;;;;5100640;28;20059;-57
2023/07/11 07:43:32;;;;;;;5.63;3.38;;;23.80;99.90;;;;;;5099120;28;20047;-57
2023/07/11 07:45:59;;;;;;;7.97;3.58;;;24.10;99.90;;;;;;5100393;28;20089;-57
2023/07/11 07:48:25;;;;;;;5.60;3.22;;;24.40;99.90;;;;;;5099201;28;20066;-57
2023/07/11 07:50:52;;;;;;;6.60;3.20;;;24.70;99.90;;;;;;5080354;28;20036;-57
2023/07/11 07:53:18;;;;;;;7.63;3.08;;;25.10;99.90;;;;;;5100445;28;20032;-57
2023/07/11 07:55:44;;;;;;;6.70;2.90;;;25.40;99.90;;;;;;5097001;28;20078;-58
2023/07/11 07:58:12;;;;;;;8.73;3.40;;;25.70;99.90;;;;;;5100916;28;20469;-58
2023/07/11 08:00:38;;;;;;;6.43;3.08;;;26.00;99.90;;;;;;5098761;28;20504;-57
2023/07/11 08:03:04;;;;;;;8.48;3.10;;;26.20;99.90;;;;;;5099833;28;20051;-58
2023/07/11 08:05:30;;;;;;;8.75;3.10;;;26.40;99.60;;;;;;5100039;28;20121;-57
2023/07/11 08:07:56;;;;;;;7.68;3.15;;;26.50;98.80;;;;;;5098512;28;20111;-58
2023/07/11 08:10:22;;;;;;;5.40;2.47;;;26.50;98.00;;;;;;5081069;28;20459;-58
2023/07/11 08:12:47;;;;;;;6.32;2.88;;;26.60;97.00;;;;;;5096366;28;20101;-58
2023/07/11 08:15:13;;;;;;;7.90;2.97;;;26.60;96.90;;;;;;5100613;28;20073;-58
2023/07/11 08:17:40;;;;;;;9.70;3.03;;;26.70;97.20;;;;;;5098283;28;20036;-57
2023/07/11 08:20:07;;;;;;;5.30;2.40;;;26.80;96.60;;;;;;5098958;28;20119;-58
2023/07/11 08:22:33;;;;;;;5.20;2.60;;;27.00;95.30;;;;;;5099385;28;20074;-57
2023/07/11 08:24:59;;;;;;;7.65;2.65;;;27.10;95.20;;;;;;5098320;28;20044;-57
2023/07/11 08:27:25;;;;;;;7.20;2.42;;;27.20;94.30;;;;;;5098590;28;20040;-57
2023/07/11 08:29:50;;;;;;;6.32;2.58;;;27.20;93.80;;;;;;5096478;28;20120;-57
2023/07/11 08:32:18;;;;;;;8.40;2.72;;;27.30;94.00;;;;;;5100252;28;20082;-58
2023/07/11 08:34:44;;;;;;;9.80;3.20;;;27.40;93.90;;;;;;5098288;28;20041;-58
2023/07/11 08:37:10;;;;;;;6.35;2.75;;;27.60;94.10;;;;;;5099917;28;20115;-58
2023/07/11 08:39:37;;;;;;;9.15;2.63;;;27.80;93.60;;;;;;5099098;28;20044;-58
2023/07/11 08:42:14;;;;;;;5.85;2.70;;;27.80;93.10;;;;;;5098600;28;20046;-58
2023/07/11 08:45:00;;;;;;;5.70;2.47;;;27.90;92.90;;;;;;5099959;28;20081;-58
2023/07/11 08:47:43;;;;;;;12.32;2.90;;;27.80;92.80;;;;;;5097603;28;20043;-58
2023/07/11 08:50:20;;;;;;;8.18;3.33;;;27.70;92.00;;;;;;5098137;28;20040;-58
2023/07/11 08:52:51;;;;;;;5.35;2.35;;;27.60;92.10;;;;;;5098441;28;20472;-57
2023/07/11 08:55:30;;;;;;;6.82;2.70;;;27.60;92.10;;;;;;5098021;28;20102;-58
2023/07/11 08:58:09;;;;;;;6.57;2.55;;;27.70;91.60;;;;;;5099917;28;20052;-58
2023/07/11 09:00:36;;;;;;;7.93;2.83;;;27.70;91.90;;;;;;5097957;28;20680;-57
2023/07/11 09:03:09;;;;;;;8.93;3.03;;;27.90;91.50;;;;;;5099404;28;20070;-57
2023/07/11 09:05:49;;;;;;;7.88;2.20;;;27.90;91.50;;;;;;5099409;28;20044;-57
2023/07/11 09:08:18;;;;;;;7.75;2.33;;;28.00;91.10;;;;;;5096371;28;20126;-57
2023/07/11 09:10:55;;;;;;;9.32;2.88;;;28.00;91.30;;;;;;5099377;28;20044;-57
2023/07/11 09:13:54;;;;;;;6.40;2.40;;;28.00;91.10;;;;;;5097346;28;20147;-57
2023/07/11 09:16:36;;;;;;;8.80;2.70;;;28.00;91.30;;;;;;5093190;28;20052;-57
2023/07/11 09:19:22;;;;;;;7.85;2.75;;;28.00;91.50;;;;;;5099354;28;20561;-58
2023/07/11 09:21:56;;;;;;;6.90;2.80;;;28.10;91.10;;;;;;5097502;28;20439;-58
2023/07/11 09:24:33;;;;;;;12.40;3.15;;;28.30;90.30;;;;;;5103320;28;20040;-58
2023/07/11 09:27:20;;;;;;;5.60;2.50;;;28.40;90.10;;;;;;5102907;28;20098;-57
2023/07/11 09:29:47;;;;;;;7.47;2.92;;;28.60;90.30;;;;;;5101414;28;20095;-58
2023/07/11 09:32:15;;;;;;;6.72;2.40;;;28.70;90.40;;;;;;5103420;28;20040;-57
2023/07/11 09:35:16;;;;;;;10.32;2.83;;;28.80;89.40;;;;;;5100102;28;20048;-58
2023/07/11 09:37:48;;;;;;;5.20;2.35;;;28.80;89.30;;;;;;5101817;28;20075;-58
2023/07/11 09:40:33;;;;;;;4.88;2.10;;;28.80;89.60;;;;;;5101408;28;20044;-58
2023/07/11 09:42:59;;;;;;;5.43;2.50;;;28.90;90.00;;;;;;5101280;28;20040;-58
2023/07/11 09:45:50;;;;;;;4.85;1.92;;;29.00;88.90;;;;;;5103295;28;20042;-57
2023/07/11 09:48:19;;;;;;;6.80;2.15;;;29.10;86.60;;;;;;5101884;28;20048;-57
2023/07/11 09:50:53;;;;;;;5.13;2.22;;;29.00;86.90;;;;;;5101235;28;20131;-58
2023/07/11 09:53:23;;;;;;;6.80;2.57;;;28.90;85.70;;;;;;5102903;28;20070;-57
2023/07/11 09:56:00;;;;;;;8.85;2.28;;;28.90;86.60;;;;;;5099426;28;20438;-58
2023/07/11 09:58:33;;;;;;;6.47;2.22;;;28.90;84.80;;;;;;5101557;28;20040;-58
2023/07/11 10:01:06;;;;;;;4.95;2.00;;;28.90;86.80;;;;;;5101919;28;20044;-57
2023/07/11 10:03:34;;;;;;;7.32;2.53;;;28.90;87.30;;;;;;5100946;28;20115;-58
2023/07/11 10:06:02;;;;;;;4.68;2.20;;;29.00;86.20;;;;;;5102393;28;20073;-58
2023/07/11 10:08:33;;;;;;;7.53;2.22;;;28.90;85.80;;;;;;5099136;28;20443;-57
2023/07/11 10:11:06;;;;;;;7.35;2.25;;;28.90;86.00;;;;;;5102335;28;20036;-57
2023/07/11 10:13:32;;;;;;;8.63;2.45;;;28.90;85.50;;;;;;5099697;28;20048;-58
2023/07/11 10:15:59;;;;;;;20.10;2.20;;;28.90;86.10;;;;;;5101823;28;20068;-58
2023/07/11 10:18:30;;;;;;;10.98;2.58;;;28.80;85.20;;;;;;5102056;28;20614;-57
2023/07/11 10:21:13;;;;;;;7.97;2.10;;;28.70;84.70;;;;;;5100285;28;20071;-58
2023/07/11 10:23:41;;;;;;;7.72;2.45;;;28.60;83.80;;;;;;5102439;28;20036;-57
2023/07/11 10:26:10;;;;;;;6.47;2.45;;;28.50;84.10;;;;;;5099002;28;20044;-57
2023/07/11 10:28:39;;;;;;;7.32;3.17;;;28.30;84.40;;;;;;5102058;28;20044;-57
2023/07/11 10:31:16;;;;;;;10.82;3.75;;;28.20;84.60;;;;;;5101430;28;20044;-58
2023/07/11 10:33:58;;;;;;;8.20;2.72;;;28.10;86.00;;;;;;5099334;28;20032;-57
2023/07/11 10:36:51;;;;;;;9.60;2.70;;;28.10;86.80;;;;;;5100677;28;20488;-57
2023/07/11 10:39:48;;;;;;;5.43;2.08;;;28.00;87.60;;;;;;5098124;28;20052;-57
2023/07/11 10:42:16;;;;;;;;;;;27.90;84.60;;;;;;5100380;28;20051;-57
2023/07/11 10:44:48;;;;;;;8.48;2.80;;;27.80;83.90;;;;;;5100435;28;19920;-57
2023/07/11 10:47:27;;;;;;;7.38;2.63;;;27.70;83.90;;;;;;5098227;28;20068;-57
2023/07/11 10:49:56;;;;;;;5.28;2.38;;;27.60;83.60;;;;;;5102009;28;20048;-57
2023/07/11 10:52:26;;;;;;;17.52;4.43;;;27.70;84.40;;;;;;5099617;28;20052;-57
2023/07/11 10:55:13;;;;;;;5.53;2.72;;;27.70;84.70;;;;;;5100058;28;20048;-57
2023/07/11 10:57:51;;;;;;;4.18;2.50;;;27.70;83.70;;;;;;5101812;28;20036;-57
2023/07/11 11:00:28;;;;;;;9.68;2.65;;;27.70;83.20;;;;;;5098062;28;20048;-57
2023/07/11 11:03:02;;;;;;;10.88;4.70;;;27.70;83.00;;;;;;5101355;28;20055;-57
2023/07/11 11:05:56;;;;;;;7.13;2.50;;;27.70;83.70;;;;;;5101207;28;20051;-57
2023/07/11 11:08:34;;;;;;;8.82;2.47;;;27.70;83.90;;;;;;5072995;28;20060;-58
2023/07/11 11:11:14;;;;;;;10.48;2.35;;;27.70;84.40;;;;;;5101423;28;20046;-57
2023/07/11 11:13:49;;;;;;;6.43;2.80;;;27.80;85.60;;;;;;5098520;28;20066;-57
2023/07/11 11:16:30;;;;;;;6.18;2.38;;;27.90;86.10;;;;;;5099932;28;20048;-58
2023/07/11 11:19:30;;;;;;;7.50;2.45;;;28.00;83.90;;;;;;5099935;28;20122;-57
2023/07/11 11:22:13;;;;;;;5.70;2.58;;;28.10;83.30;;;;;;5099407;28;20073;-56
2023/07/11 11:25:00;;;;;;;6.22;2.60;;;28.20;83.90;;;;;;5100121;28;20052;-58
2023/07/11 11:27:48;;;;;;;6.47;2.67;;;28.20;82.90;;;;;;5100926;28;20054;-57
2023/07/11 11:30:38;;;;;;;9.68;2.53;;;28.20;82.00;;;;;;5098599;28;20342;-56
2023/07/11 11:33:39;;;;;;;6.32;2.42;;;28.20;83.10;;;;;;5082247;28;20052;-58
2023/07/11 11:36:12;;;;;;;8.45;2.33;;;28.20;81.90;;;;;;5097744;28;20527;-58
2023/07/11 11:38:38;;;;;;;7.35;2.45;;;28.20;82.80;;;;;;5098471;28;20043;-58
2023/07/11 11:41:15;;;;;;;6.22;3.35;;;28.30;82.70;;;;;;5099636;28;20044;-58
2023/07/11 11:43:44;;;;;;;7.22;2.75;;;28.30;82.60;;;;;;5098433;28;20040;-57
2023/07/11 11:46:11;;;;;;;6.63;2.95;;;28.30;82.50;;;;;;5097855;28;20055;-58
2023/07/11 11:48:38;;;;;;;8.85;2.83;;;28.40;82.60;;;;;;5100556;28;20040;-58
2023/07/11 11:51:09;;;;;;;5.97;2.80;;;28.50;82.40;;;;;;5098457;28;20051;-59
2023/07/11 11:53:46;;;;;;;5.03;2.40;;;28.50;82.10;;;;;;5099634;28;20040;-57
2023/07/11 11:56:17;;;;;;;7.80;2.60;;;28.60;82.00;;;;;;5097483;28;20434;-57
2023/07/11 11:58:59;;;;;;;5.32;2.42;;;28.60;81.60;;;;;;5098803;28;20040;-58
2023/07/11 12:02:00;;;;;;;5.65;2.70;;;28.70;81.40;;;;;;5100080;28;20492;-57
2023/07/11 12:04:29;;;;;;;7.55;2.58;;;28.70;82.20;;;;;;5079188;28;20058;-58
2023/07/11 12:07:12;;;;;;;5.68;2.67;;;28.70;81.60;;;;;;5100663;28;20059;-58
2023/07/11 12:09:53;;;;;;;8.00;2.88;;;28.80;81.30;;;;;;5099448;28;20099;-57
2023/07/11 12:12:21;;;;;;;6.70;2.50;;;28.80;82.00;;;;;;5096796;28;20063;-57
2023/07/11 12:14:51;;;;;;;6.93;2.58;;;28.90;82.60;;;;;;5099004;28;20399;-57
2023/07/11 12:17:29;;;;;;;7.97;3.15;;;29.00;81.10;;;;;;5096708;28;20052;-58
2023/07/11 12:20:00;;;;;;;10.65;3.15;;;29.10;80.40;;;;;;5100144;28;20127;-58
2023/07/11 12:22:52;;;;;;;9.48;2.75;;;29.10;79.70;;;;;;5099391;28;20083;-57
2023/07/11 12:25:20;;;;;;;9.15;3.00;;;29.20;79.80;;;;;;5098222;28;20505;-58
2023/07/11 12:28:01;;;;;;;11.95;2.78;;;29.30;79.50;;;;;;5100160;28;20044;-58
2023/07/11 12:30:36;;;;;;;7.15;2.80;;;29.40;78.60;;;;;;5098439;28;20050;-57
2023/07/11 12:33:22;;;;;;;6.10;2.53;;;29.50;79.70;;;;;;5099282;28;20048;-58
2023/07/11 12:36:16;;;;;;;7.15;2.95;;;29.50;79.30;;;;;;5099799;28;20341;-58
2023/07/11 12:38:58;;;;;;;10.38;3.00;;;29.60;79.40;;;;;;5068501;28;20052;-57
2023/07/11 12:41:29;;;;;;;9.55;3.13;;;29.70;79.80;;;;;;5098296;28;20040;-58
2023/07/11 12:43:55;;;;;;;9.80;2.90;;;29.80;81.00;;;;;;5099411;28;20061;-58
2023/07/11 12:46:34;;;;;;;9.07;2.92;;;29.80;80.30;;;;;;5098363;28;20142;-58
2023/07/11 12:49:02;;;;;;;6.32;2.60;;;29.90;80.60;;;;;;5099928;28;20403;-58
2023/07/11 12:51:36;;;;;;;13.48;3.08;;;30.10;81.00;;;;;;5097815;28;20036;-59
2023/07/11 12:54:16;;;;;;;7.07;2.63;;;30.20;81.30;;;;;;5100107;28;20099;-60
2023/07/11 12:56:44;;;;;;;6.63;2.20;;;30.30;80.80;;;;;;5099221;28;20073;-57
2023/07/11 12:59:20;;;;;;;14.30;2.35;;;30.30;80.60;;;;;;5101060;28;20051;-57